createdAt,value
2019-01-13T00:00:26.603Z,4.80
2019-01-13T00:01:32.704Z,4.80
2019-01-13T00:02:37.193Z,4.80
2019-01-13T00:03:41.694Z,4.80
2019-01-13T00:04:46.298Z,4.80
2019-01-13T00:05:50.945Z,4.80
2019-01-13T00:06:55.679Z,4.80
2019-01-13T00:08:00.336Z,4.80
2019-01-13T00:09:06.842Z,4.80
2019-01-13T00:10:11.543Z,4.80
2019-01-13T00:11:16.230Z,4.80
2019-01-13T00:12:20.850Z,4.80
2019-01-13T00:13:25.568Z,4.80
2019-01-13T00:14:30.097Z,4.80
2019-01-13T00:15:34.656Z,4.80
2019-01-13T00:16:39.164Z,4.80
2019-01-13T00:17:43.634Z,4.80
2019-01-13T00:18:48.165Z,4.80
2019-01-13T00:19:52.796Z,4.80
2019-01-13T00:20:57.283Z,4.80
2019-01-13T00:22:01.821Z,4.80
2019-01-13T00:23:06.363Z,4.80
2019-01-13T00:24:10.916Z,4.70
2019-01-13T00:25:15.377Z,4.80
2019-01-13T00:26:19.851Z,4.80
2019-01-13T00:27:24.365Z,4.80
2019-01-13T00:28:28.830Z,4.80
2019-01-13T00:29:33.386Z,4.80
2019-01-13T00:30:37.993Z,4.80
2019-01-13T00:31:42.469Z,4.80
2019-01-13T00:32:47.040Z,4.80
2019-01-13T00:33:51.519Z,4.80
2019-01-13T00:34:56.000Z,4.80
2019-01-13T00:36:00.507Z,4.80
2019-01-13T00:37:05.115Z,4.80
2019-01-13T00:38:09.650Z,4.80
2019-01-13T00:39:14.194Z,4.80
2019-01-13T00:40:19.800Z,4.80
2019-01-13T00:41:24.436Z,4.80
2019-01-13T00:42:28.940Z,4.80
2019-01-13T00:43:33.441Z,4.80
2019-01-13T00:44:37.921Z,4.80
2019-01-13T00:45:42.436Z,4.80
2019-01-13T00:46:46.903Z,4.80
2019-01-13T00:47:51.567Z,4.80
2019-01-13T00:48:56.132Z,4.80
2019-01-13T00:50:00.821Z,4.80
2019-01-13T00:51:05.386Z,4.80
2019-01-13T00:52:09.881Z,4.80
2019-01-13T00:53:14.358Z,4.80
2019-01-13T00:54:18.874Z,4.80
2019-01-13T00:55:23.376Z,4.80
2019-01-13T00:56:27.919Z,4.80
2019-01-13T00:57:32.381Z,4.80
2019-01-13T00:58:36.952Z,4.80
2019-01-13T00:59:41.441Z,4.80
2019-01-13T01:00:46.011Z,4.80
2019-01-13T01:01:52.184Z,4.80
2019-01-13T01:02:58.274Z,4.80
2019-01-13T01:04:02.737Z,4.80
2019-01-13T01:05:09.254Z,4.80
2019-01-13T01:06:13.923Z,4.80
2019-01-13T01:07:18.472Z,4.80
2019-01-13T01:08:23.066Z,4.80
2019-01-13T01:09:27.682Z,4.80
2019-01-13T01:10:32.253Z,4.80
2019-01-13T01:11:36.786Z,4.80
2019-01-13T01:12:41.274Z,4.80
2019-01-13T01:13:45.789Z,4.80
2019-01-13T01:14:50.274Z,4.80
2019-01-13T01:15:54.757Z,4.90
2019-01-13T01:16:59.244Z,4.90
2019-01-13T01:18:03.790Z,4.90
2019-01-13T01:19:08.280Z,4.90
2019-01-13T01:20:14.894Z,4.80
2019-01-13T01:21:19.397Z,4.80
2019-01-13T01:22:23.909Z,4.90
2019-01-13T01:23:28.441Z,4.90
2019-01-13T01:24:32.905Z,4.90
2019-01-13T01:25:37.401Z,4.90
2019-01-13T01:26:41.854Z,4.90
2019-01-13T01:27:46.483Z,4.90
2019-01-13T01:28:51.145Z,4.90
2019-01-13T01:29:55.615Z,4.90
2019-01-13T01:31:00.094Z,4.90
2019-01-13T01:32:04.651Z,4.90
2019-01-13T01:33:09.315Z,4.90
2019-01-13T01:34:13.937Z,4.90
2019-01-13T01:35:18.537Z,4.90
2019-01-13T01:36:23.047Z,4.90
2019-01-13T01:37:27.530Z,5.00
2019-01-13T01:38:32.083Z,5.00
2019-01-13T01:39:36.782Z,5.00
2019-01-13T01:40:41.343Z,5.00
2019-01-13T01:41:45.832Z,5.00
2019-01-13T01:42:50.372Z,5.00
2019-01-13T01:43:54.877Z,5.00
2019-01-13T01:44:59.365Z,5.00
2019-01-13T01:46:03.892Z,5.00
2019-01-13T01:47:08.372Z,5.10
2019-01-13T01:48:12.912Z,5.00
2019-01-13T01:49:17.416Z,5.00
2019-01-13T01:50:21.951Z,5.00
2019-01-13T01:51:26.517Z,5.00
2019-01-13T01:52:31.019Z,5.00
2019-01-13T01:53:35.569Z,5.00
2019-01-13T01:54:40.179Z,5.00
2019-01-13T01:55:44.744Z,5.00
2019-01-13T01:56:49.243Z,5.00
2019-01-13T01:57:53.748Z,5.00
2019-01-13T01:58:58.253Z,5.00
2019-01-13T02:00:03.079Z,5.00
2019-01-13T02:01:07.638Z,5.00
2019-01-13T02:02:12.183Z,5.00
2019-01-13T02:03:16.708Z,5.00
2019-01-13T02:04:21.192Z,5.00
2019-01-13T02:05:25.706Z,5.00
2019-01-13T02:06:30.171Z,5.00
2019-01-13T02:07:35.291Z,5.00
2019-01-13T02:08:39.758Z,5.00
2019-01-13T02:09:44.250Z,5.00
2019-01-13T02:10:48.816Z,5.00
2019-01-13T02:11:53.300Z,5.00
2019-01-13T02:12:57.784Z,4.90
2019-01-13T02:14:02.255Z,5.00
2019-01-13T02:15:09.837Z,5.00
2019-01-13T02:16:14.363Z,5.00
2019-01-13T02:17:18.910Z,5.00
2019-01-13T02:18:23.387Z,5.00
2019-01-13T02:19:27.850Z,5.00
2019-01-13T02:20:33.321Z,5.00
2019-01-13T02:21:37.814Z,5.00
2019-01-13T02:22:42.431Z,5.00
2019-01-13T02:23:46.971Z,5.00
2019-01-13T02:24:51.605Z,5.00
2019-01-13T02:25:56.188Z,5.00
2019-01-13T02:27:00.693Z,5.00
2019-01-13T02:28:05.140Z,5.00
2019-01-13T02:29:09.641Z,5.00
2019-01-13T02:30:16.944Z,5.00
2019-01-13T02:31:21.437Z,5.00
2019-01-13T02:32:25.902Z,5.00
2019-01-13T02:33:30.386Z,5.10
2019-01-13T02:34:34.859Z,5.10
2019-01-13T02:35:39.330Z,5.10
2019-01-13T02:36:43.793Z,5.10
2019-01-13T02:37:48.402Z,5.10
2019-01-13T02:38:52.896Z,5.10
2019-01-13T02:39:57.740Z,5.10
2019-01-13T02:41:02.220Z,5.10
2019-01-13T02:42:06.705Z,5.10
2019-01-13T02:43:11.197Z,5.10
2019-01-13T02:44:15.718Z,5.10
2019-01-13T02:45:27.337Z,5.10
2019-01-13T02:46:31.833Z,5.10
2019-01-13T02:47:42.291Z,5.10
2019-01-13T02:49:04.879Z,5.10
2019-01-13T02:50:27.476Z,5.10
2019-01-13T02:51:31.962Z,5.20
2019-01-13T02:52:36.435Z,5.20
2019-01-13T02:53:40.910Z,5.20
2019-01-13T02:54:45.461Z,5.10
2019-01-13T02:55:50.021Z,5.10
2019-01-13T02:56:54.478Z,5.20
2019-01-13T02:57:58.969Z,5.10
2019-01-13T02:59:03.497Z,5.20
2019-01-13T03:00:16.500Z,5.20
2019-01-13T03:01:20.978Z,5.20
2019-01-13T03:02:25.441Z,5.20
2019-01-13T03:03:29.954Z,5.10
2019-01-13T03:04:34.603Z,5.20
2019-01-13T03:05:39.130Z,5.10
2019-01-13T03:06:43.651Z,5.20
2019-01-13T03:07:48.185Z,5.20
2019-01-13T03:08:52.648Z,5.20
2019-01-13T03:09:57.469Z,5.20
2019-01-13T03:11:01.934Z,5.20
2019-01-13T03:12:06.459Z,5.20
2019-01-13T03:13:11.010Z,5.20
2019-01-13T03:14:15.514Z,5.20
2019-01-13T03:15:21.962Z,5.20
2019-01-13T03:16:26.468Z,5.20
2019-01-13T03:17:30.942Z,5.20
2019-01-13T03:18:35.436Z,5.20
2019-01-13T03:19:39.894Z,5.20
2019-01-13T03:20:44.474Z,5.20
2019-01-13T03:21:48.943Z,5.20
2019-01-13T03:22:53.463Z,5.20
2019-01-13T03:23:57.930Z,5.30
2019-01-13T03:25:02.427Z,5.20
2019-01-13T03:26:07.031Z,5.30
2019-01-13T03:27:11.576Z,5.30
2019-01-13T03:28:17.262Z,5.30
2019-01-13T03:29:23.128Z,5.30
2019-01-13T03:30:27.598Z,5.30
2019-01-13T03:31:32.064Z,5.30
2019-01-13T03:32:36.560Z,5.30
2019-01-13T03:33:41.054Z,5.30
2019-01-13T03:34:45.520Z,5.30
2019-01-13T03:35:50.003Z,5.30
2019-01-13T03:36:54.475Z,5.30
2019-01-13T03:37:58.951Z,5.40
2019-01-13T03:39:05.001Z,5.30
2019-01-13T03:40:13.011Z,5.30
2019-01-13T03:41:17.515Z,5.40
2019-01-13T03:42:21.991Z,5.40
2019-01-13T03:43:27.356Z,5.30
2019-01-13T03:44:31.866Z,5.40
2019-01-13T03:45:36.329Z,5.40
2019-01-13T03:46:40.898Z,5.40
2019-01-13T03:47:45.449Z,5.40
2019-01-13T03:48:49.946Z,5.30
2019-01-13T03:49:56.004Z,5.40
2019-01-13T03:51:00.515Z,5.30
2019-01-13T03:52:05.312Z,5.30
2019-01-13T03:53:09.762Z,5.30
2019-01-13T03:54:14.243Z,5.30
2019-01-13T03:55:21.389Z,5.20
2019-01-13T03:56:25.882Z,5.20
2019-01-13T03:57:30.421Z,5.20
2019-01-13T03:58:34.908Z,5.20
2019-01-13T03:59:39.446Z,5.20
2019-01-13T04:00:43.924Z,5.10
2019-01-13T04:01:48.447Z,5.10
2019-01-13T04:02:53.065Z,5.10
2019-01-13T04:03:57.521Z,5.10
2019-01-13T04:05:02.075Z,5.10
2019-01-13T04:06:06.546Z,5.10
2019-01-13T04:07:11.116Z,5.10
2019-01-13T04:08:15.609Z,5.10
2019-01-13T04:09:20.088Z,5.10
2019-01-13T04:10:24.625Z,5.00
2019-01-13T04:11:29.192Z,5.10
2019-01-13T04:12:33.754Z,5.10
2019-01-13T04:13:38.231Z,5.10
2019-01-13T04:14:42.707Z,5.10
2019-01-13T04:15:47.184Z,5.00
2019-01-13T04:16:51.680Z,5.10
2019-01-13T04:17:57.035Z,5.10
2019-01-13T04:19:01.514Z,5.10
2019-01-13T04:20:06.413Z,5.10
2019-01-13T04:21:10.916Z,5.10
2019-01-13T04:22:15.436Z,5.10
2019-01-13T04:23:20.218Z,5.20
2019-01-13T04:24:24.687Z,5.20
2019-01-13T04:25:29.218Z,5.20
2019-01-13T04:26:33.708Z,5.20
2019-01-13T04:27:38.157Z,5.20
2019-01-13T04:28:42.663Z,5.20
2019-01-13T04:29:47.391Z,5.20
2019-01-13T04:30:51.872Z,5.20
2019-01-13T04:31:56.372Z,5.20
2019-01-13T04:33:00.845Z,5.20
2019-01-13T04:34:05.347Z,5.20
2019-01-13T04:35:10.005Z,5.30
2019-01-13T04:36:14.665Z,5.30
2019-01-13T04:37:19.132Z,5.30
2019-01-13T04:38:23.743Z,5.30
2019-01-13T04:39:28.223Z,5.30
2019-01-13T04:40:32.729Z,5.30
2019-01-13T04:41:37.209Z,5.30
2019-01-13T04:42:41.697Z,5.30
2019-01-13T04:43:46.170Z,5.30
2019-01-13T04:44:50.657Z,5.40
2019-01-13T04:45:55.139Z,5.40
2019-01-13T04:46:59.874Z,5.40
2019-01-13T04:48:04.444Z,5.30
2019-01-13T04:49:08.909Z,5.40
2019-01-13T04:50:14.927Z,5.30
2019-01-13T04:51:19.385Z,5.40
2019-01-13T04:52:23.890Z,5.40
2019-01-13T04:53:28.385Z,5.40
2019-01-13T04:54:32.868Z,5.40
2019-01-13T04:55:37.365Z,5.40
2019-01-13T04:56:41.853Z,5.40
2019-01-13T04:57:46.335Z,5.40
2019-01-13T04:58:51.283Z,5.40
2019-01-13T04:59:55.774Z,5.40
2019-01-13T05:01:00.317Z,5.50
2019-01-13T05:02:05.150Z,5.40
2019-01-13T05:03:09.651Z,5.40
2019-01-13T05:04:14.129Z,5.50
2019-01-13T05:05:18.729Z,5.50
2019-01-13T05:06:23.201Z,5.50
2019-01-13T05:07:27.675Z,5.50
2019-01-13T05:08:32.183Z,5.50
2019-01-13T05:09:36.691Z,5.50
2019-01-13T05:10:41.441Z,5.50
2019-01-13T05:11:45.911Z,5.50
2019-01-13T05:12:50.387Z,5.50
2019-01-13T05:13:55.100Z,5.50
2019-01-13T05:14:59.609Z,5.50
2019-01-13T05:16:04.248Z,5.50
2019-01-13T05:17:08.718Z,5.60
2019-01-13T05:18:13.210Z,5.60
2019-01-13T05:19:17.681Z,5.60
2019-01-13T05:20:22.277Z,5.60
2019-01-13T05:21:26.738Z,5.60
2019-01-13T05:22:31.324Z,5.60
2019-01-13T05:23:35.864Z,5.60
2019-01-13T05:24:40.353Z,5.60
2019-01-13T05:25:44.875Z,5.60
2019-01-13T05:26:49.346Z,5.60
2019-01-13T05:27:53.955Z,5.60
2019-01-13T05:28:58.652Z,5.60
2019-01-13T05:30:04.789Z,5.60
2019-01-13T05:31:09.282Z,5.60
2019-01-13T05:32:13.776Z,5.60
2019-01-13T05:33:18.243Z,5.60
2019-01-13T05:34:22.740Z,5.70
2019-01-13T05:35:27.293Z,5.70
2019-01-13T05:36:31.789Z,5.60
2019-01-13T05:37:36.336Z,5.70
2019-01-13T05:38:40.844Z,5.70
2019-01-13T05:39:45.315Z,5.70
2019-01-13T05:40:49.805Z,5.70
2019-01-13T05:41:54.298Z,5.70
2019-01-13T05:42:58.771Z,5.70
2019-01-13T05:44:03.339Z,5.70
2019-01-13T05:45:10.824Z,5.70
2019-01-13T05:46:15.357Z,5.70
2019-01-13T05:47:19.848Z,5.70
2019-01-13T05:48:24.381Z,5.70
2019-01-13T05:49:28.872Z,5.70
2019-01-13T05:50:33.339Z,5.70
2019-01-13T05:51:37.836Z,5.70
2019-01-13T05:52:43.146Z,5.70
2019-01-13T05:53:47.657Z,5.70
2019-01-13T05:54:52.145Z,5.70
2019-01-13T05:55:56.616Z,5.70
2019-01-13T05:57:01.102Z,5.80
2019-01-13T05:58:05.591Z,5.70
2019-01-13T05:59:10.061Z,5.70
2019-01-13T06:00:22.966Z,5.70
2019-01-13T06:01:27.480Z,5.70
2019-01-13T06:02:31.961Z,5.70
2019-01-13T06:03:36.462Z,5.70
2019-01-13T06:04:40.942Z,5.70
2019-01-13T06:05:45.585Z,5.70
2019-01-13T06:06:50.125Z,5.70
2019-01-13T06:07:54.581Z,5.70
2019-01-13T06:08:59.344Z,5.70
2019-01-13T06:10:06.719Z,5.70
2019-01-13T06:11:11.209Z,5.70
2019-01-13T06:12:15.657Z,5.70
2019-01-13T06:13:20.139Z,5.70
2019-01-13T06:14:24.670Z,5.80
2019-01-13T06:15:29.153Z,5.70
2019-01-13T06:16:33.629Z,5.80
2019-01-13T06:17:38.116Z,5.80
2019-01-13T06:18:42.595Z,5.80
2019-01-13T06:19:47.120Z,5.80
2019-01-13T06:20:51.586Z,5.80
2019-01-13T06:21:56.116Z,5.80
2019-01-13T06:23:00.603Z,5.80
2019-01-13T06:24:05.093Z,5.80
2019-01-13T06:25:09.931Z,5.80
2019-01-13T06:26:14.551Z,5.80
2019-01-13T06:27:19.142Z,5.80
2019-01-13T06:28:23.647Z,5.80
2019-01-13T06:29:28.172Z,5.80
2019-01-13T06:30:32.903Z,5.80
2019-01-13T06:31:37.407Z,5.80
2019-01-13T06:32:41.893Z,5.80
2019-01-13T06:33:46.375Z,5.80
2019-01-13T06:34:50.883Z,5.80
2019-01-13T06:35:55.460Z,5.80
2019-01-13T06:36:59.989Z,5.80
2019-01-13T06:38:04.473Z,5.80
2019-01-13T06:39:09.156Z,5.80
2019-01-13T06:40:15.556Z,5.80
2019-01-13T06:41:20.053Z,5.80
2019-01-13T06:42:24.532Z,5.80
2019-01-13T06:43:29.046Z,5.80
2019-01-13T06:44:33.529Z,5.90
2019-01-13T06:45:38.067Z,5.80
2019-01-13T06:46:42.560Z,5.90
2019-01-13T06:47:47.051Z,5.90
2019-01-13T06:48:51.632Z,5.90
2019-01-13T06:49:56.148Z,5.80
2019-01-13T06:51:00.948Z,5.80
2019-01-13T06:52:05.496Z,5.90
2019-01-13T06:53:10.060Z,5.90
2019-01-13T06:54:14.548Z,5.80
2019-01-13T06:55:19.084Z,5.90
2019-01-13T06:56:23.655Z,5.90
2019-01-13T06:57:28.130Z,5.90
2019-01-13T06:58:32.603Z,5.90
2019-01-13T06:59:37.083Z,5.90
2019-01-13T07:00:41.622Z,5.90
2019-01-13T07:01:46.094Z,5.90
2019-01-13T07:02:50.711Z,5.90
2019-01-13T07:03:55.179Z,5.90
2019-01-13T07:04:59.656Z,5.90
2019-01-13T07:06:04.422Z,5.90
2019-01-13T07:07:08.955Z,5.90
2019-01-13T07:08:13.638Z,5.90
2019-01-13T07:09:18.217Z,5.90
2019-01-13T07:10:23.335Z,5.90
2019-01-13T07:11:28.141Z,5.90
2019-01-13T07:12:32.615Z,5.90
2019-01-13T07:13:37.270Z,5.90
2019-01-13T07:14:41.842Z,5.90
2019-01-13T07:15:46.304Z,5.90
2019-01-13T07:16:50.859Z,5.90
2019-01-13T07:17:55.447Z,5.90
2019-01-13T07:18:59.981Z,6.00
2019-01-13T07:20:07.529Z,6.00
2019-01-13T07:21:12.036Z,6.00
2019-01-13T07:22:16.609Z,5.90
2019-01-13T07:23:21.181Z,6.00
2019-01-13T07:24:25.902Z,6.00
2019-01-13T07:25:30.522Z,6.00
2019-01-13T07:26:35.076Z,6.00
2019-01-13T07:27:39.628Z,6.00
2019-01-13T07:28:44.264Z,6.00
2019-01-13T07:29:48.823Z,6.00
2019-01-13T07:30:53.427Z,6.00
2019-01-13T07:31:57.946Z,6.00
2019-01-13T07:33:02.441Z,6.00
2019-01-13T07:34:06.942Z,6.20
2019-01-13T07:35:11.506Z,6.00
2019-01-13T07:36:15.979Z,6.00
2019-01-13T07:37:20.681Z,6.00
2019-01-13T07:38:25.170Z,6.00
2019-01-13T07:39:29.737Z,6.00
2019-01-13T07:40:34.285Z,6.00
2019-01-13T07:41:38.765Z,6.00
2019-01-13T07:42:43.470Z,6.00
2019-01-13T07:43:47.995Z,6.00
2019-01-13T07:44:52.599Z,6.00
2019-01-13T07:45:57.564Z,6.00
2019-01-13T07:47:02.026Z,6.00
2019-01-13T07:48:06.518Z,6.00
2019-01-13T07:49:10.973Z,6.00
2019-01-13T07:50:17.208Z,6.00
2019-01-13T07:51:21.689Z,6.00
2019-01-13T07:52:26.169Z,6.00
2019-01-13T07:53:30.662Z,6.00
2019-01-13T07:54:35.135Z,6.00
2019-01-13T07:55:41.236Z,6.00
2019-01-13T07:56:45.749Z,6.10
2019-01-13T07:57:50.291Z,6.00
2019-01-13T07:58:54.790Z,6.10
2019-01-13T07:59:59.263Z,6.10
2019-01-13T08:01:05.083Z,6.00
2019-01-13T08:02:09.727Z,6.10
2019-01-13T08:03:14.231Z,6.10
2019-01-13T08:04:18.708Z,6.10
2019-01-13T08:05:23.906Z,6.10
2019-01-13T08:06:28.401Z,6.10
2019-01-13T08:07:32.898Z,6.10
2019-01-13T08:08:37.406Z,6.10
2019-01-13T08:09:42.351Z,6.10
2019-01-13T08:10:46.828Z,6.10
2019-01-13T08:11:51.319Z,6.10
2019-01-13T08:12:55.865Z,6.10
2019-01-13T08:14:00.360Z,6.10
2019-01-13T08:15:08.261Z,6.10
2019-01-13T08:16:12.734Z,6.10
2019-01-13T08:17:17.237Z,6.10
2019-01-13T08:18:21.866Z,6.10
2019-01-13T08:19:26.331Z,6.10
2019-01-13T08:20:31.748Z,6.20
2019-01-13T08:21:36.242Z,6.20
2019-01-13T08:22:40.725Z,6.20
2019-01-13T08:23:45.217Z,6.20
2019-01-13T08:24:49.801Z,6.20
2019-01-13T08:25:54.283Z,6.10
2019-01-13T08:26:58.776Z,6.20
2019-01-13T08:28:03.295Z,6.20
2019-01-13T08:29:07.818Z,6.20
2019-01-13T08:30:17.435Z,6.20
2019-01-13T08:31:21.911Z,6.20
2019-01-13T08:32:26.505Z,6.20
2019-01-13T08:33:31.027Z,6.20
2019-01-13T08:34:35.595Z,6.20
2019-01-13T08:35:40.186Z,6.20
2019-01-13T08:36:44.703Z,6.30
2019-01-13T08:37:49.259Z,6.20
2019-01-13T08:38:53.839Z,6.30
2019-01-13T08:39:58.311Z,6.30
2019-01-13T08:41:02.808Z,6.30
2019-01-13T08:42:07.532Z,6.30
2019-01-13T08:43:12.070Z,6.30
2019-01-13T08:44:16.598Z,6.30
2019-01-13T08:45:21.210Z,6.30
2019-01-13T08:46:25.728Z,6.30
2019-01-13T08:47:30.337Z,6.40
2019-01-13T08:48:34.794Z,6.30
2019-01-13T08:49:39.415Z,6.40
2019-01-13T08:50:43.972Z,6.40
2019-01-13T08:51:48.469Z,6.40
2019-01-13T08:52:53.186Z,6.40
2019-01-13T08:53:57.667Z,6.40
2019-01-13T08:55:02.409Z,6.50
2019-01-13T08:56:07.001Z,6.50
2019-01-13T08:57:11.473Z,6.50
2019-01-13T08:58:15.943Z,6.50
2019-01-13T08:59:20.422Z,6.50
2019-01-13T09:00:27.235Z,6.50
2019-01-13T09:01:31.720Z,6.50
2019-01-13T09:02:36.271Z,6.50
2019-01-13T09:03:40.866Z,6.50
2019-01-13T09:04:45.341Z,6.50
2019-01-13T09:05:49.850Z,6.50
2019-01-13T09:06:54.332Z,6.50
2019-01-13T09:07:58.853Z,6.50
2019-01-13T09:09:06.513Z,6.50
2019-01-13T09:10:16.666Z,6.50
2019-01-13T09:11:21.158Z,6.50
2019-01-13T09:12:25.703Z,6.50
2019-01-13T09:13:30.208Z,6.50
2019-01-13T09:14:34.683Z,6.60
2019-01-13T09:15:39.164Z,6.60
2019-01-13T09:16:43.644Z,6.60
2019-01-13T09:17:48.571Z,6.60
2019-01-13T09:18:53.137Z,6.60
2019-01-13T09:19:57.692Z,6.60
2019-01-13T09:21:02.254Z,6.60
2019-01-13T09:22:07.527Z,6.60
2019-01-13T09:23:12.302Z,6.60
2019-01-13T09:24:16.819Z,6.60
2019-01-13T09:25:21.442Z,6.60
2019-01-13T09:26:26.002Z,6.60
2019-01-13T09:27:30.559Z,6.70
2019-01-13T09:28:35.163Z,6.60
2019-01-13T09:29:42.555Z,6.60
2019-01-13T09:30:45.869Z,6.70
2019-01-13T09:31:50.343Z,6.70
2019-01-13T09:32:54.881Z,6.70
2019-01-13T09:33:59.381Z,6.70
2019-01-13T09:35:04.901Z,6.70
2019-01-13T09:36:09.411Z,6.70
2019-01-13T09:37:13.939Z,6.70
2019-01-13T09:38:18.505Z,6.70
2019-01-13T09:39:22.983Z,6.70
2019-01-13T09:40:29.119Z,6.70
2019-01-13T09:41:33.587Z,6.70
2019-01-13T09:42:38.068Z,6.80
2019-01-13T09:43:42.544Z,6.80
2019-01-13T09:44:47.030Z,6.80
2019-01-13T09:45:51.578Z,6.80
2019-01-13T09:46:56.050Z,6.80
2019-01-13T09:48:00.628Z,6.80
2019-01-13T09:49:05.125Z,6.80
2019-01-13T09:50:12.762Z,6.80
2019-01-13T09:51:17.232Z,6.80
2019-01-13T09:52:21.729Z,6.80
2019-01-13T09:53:26.267Z,6.80
2019-01-13T09:54:30.794Z,6.80
2019-01-13T09:55:35.279Z,6.80
2019-01-13T09:56:39.773Z,6.80
2019-01-13T09:57:44.390Z,6.90
2019-01-13T09:58:49.254Z,6.90
2019-01-13T09:59:53.749Z,6.80
2019-01-13T10:00:58.250Z,6.90
2019-01-13T10:02:02.976Z,6.90
2019-01-13T10:03:08.166Z,6.90
2019-01-13T10:04:12.712Z,6.90
2019-01-13T10:05:17.449Z,6.90
2019-01-13T10:06:21.973Z,7.10
2019-01-13T10:07:26.536Z,6.90
2019-01-13T10:08:31.015Z,6.90
2019-01-13T10:09:35.487Z,7.00
2019-01-13T10:10:39.965Z,6.90
2019-01-13T10:11:44.552Z,7.00
2019-01-13T10:12:49.032Z,7.00
2019-01-13T10:13:53.633Z,7.00
2019-01-13T10:14:58.209Z,7.00
2019-01-13T10:16:02.720Z,7.00
2019-01-13T10:17:07.258Z,7.00
2019-01-13T10:18:11.801Z,7.00
2019-01-13T10:19:16.295Z,7.00
2019-01-13T10:20:20.827Z,7.00
2019-01-13T10:21:25.298Z,7.00
2019-01-13T10:22:29.974Z,7.00
2019-01-13T10:23:34.659Z,7.00
2019-01-13T10:24:39.228Z,7.00
2019-01-13T10:25:43.782Z,7.00
2019-01-13T10:26:48.346Z,7.00
2019-01-13T10:27:52.961Z,7.00
2019-01-13T10:28:57.433Z,7.00
2019-01-13T10:30:01.940Z,7.00
2019-01-13T10:31:06.579Z,7.00
2019-01-13T10:32:11.124Z,7.00
2019-01-13T10:33:15.627Z,7.00
2019-01-13T10:34:20.107Z,7.00
2019-01-13T10:35:24.950Z,7.00
2019-01-13T10:36:29.463Z,7.10
2019-01-13T10:37:33.955Z,7.00
2019-01-13T10:38:38.451Z,7.10
2019-01-13T10:39:42.944Z,7.00
2019-01-13T10:40:47.538Z,7.10
2019-01-13T10:41:52.031Z,7.10
2019-01-13T10:42:57.173Z,7.10
2019-01-13T10:44:01.714Z,7.00
2019-01-13T10:45:09.416Z,7.00
2019-01-13T10:46:13.891Z,7.00
2019-01-13T10:47:18.825Z,7.00
2019-01-13T10:48:23.312Z,7.00
2019-01-13T10:49:27.817Z,7.00
2019-01-13T10:50:32.644Z,6.90
2019-01-13T10:51:37.110Z,6.90
2019-01-13T10:52:41.829Z,6.90
2019-01-13T10:53:46.361Z,6.90
2019-01-13T10:54:50.908Z,6.80
2019-01-13T10:55:55.665Z,6.80
2019-01-13T10:57:00.211Z,6.80
2019-01-13T10:58:04.931Z,6.80
2019-01-13T10:59:09.400Z,6.70
2019-01-13T11:00:25.620Z,6.70
2019-01-13T11:01:30.194Z,6.70
2019-01-13T11:02:34.672Z,6.60
2019-01-13T11:03:39.182Z,6.60
2019-01-13T11:04:43.715Z,6.60
2019-01-13T11:05:48.212Z,6.60
2019-01-13T11:06:52.717Z,6.60
2019-01-13T11:07:58.082Z,6.50
2019-01-13T11:09:04.387Z,6.50
2019-01-13T11:10:14.256Z,6.50
2019-01-13T11:11:18.824Z,6.50
2019-01-13T11:12:23.305Z,6.40
2019-01-13T11:13:27.813Z,6.40
2019-01-13T11:14:32.299Z,6.40
2019-01-13T11:15:36.773Z,6.40
2019-01-13T11:16:41.259Z,6.30
2019-01-13T11:17:46.081Z,6.30
2019-01-13T11:18:50.645Z,6.30
2019-01-13T11:19:55.567Z,6.30
2019-01-13T11:21:00.087Z,6.20
2019-01-13T11:22:04.817Z,6.20
2019-01-13T11:23:09.305Z,6.10
2019-01-13T11:24:13.815Z,6.10
2019-01-13T11:25:18.417Z,6.10
2019-01-13T11:26:22.891Z,6.10
2019-01-13T11:27:27.387Z,6.10
2019-01-13T11:28:31.931Z,6.10
2019-01-13T11:29:36.521Z,6.10
2019-01-13T11:30:41.010Z,6.10
2019-01-13T11:31:45.484Z,6.00
2019-01-13T11:32:49.978Z,6.00
2019-01-13T11:33:54.450Z,6.00
2019-01-13T11:34:58.963Z,6.00
2019-01-13T11:36:03.687Z,6.00
2019-01-13T11:37:08.176Z,6.00
2019-01-13T11:38:12.743Z,5.90
2019-01-13T11:39:17.235Z,5.90
2019-01-13T11:40:26.670Z,5.90
2019-01-13T11:41:31.292Z,5.90
2019-01-13T11:42:35.798Z,5.80
2019-01-13T11:43:40.308Z,5.80
2019-01-13T11:44:44.873Z,5.80
2019-01-13T11:45:49.530Z,5.80
2019-01-13T11:46:54.082Z,5.80
2019-01-13T11:47:58.559Z,5.70
2019-01-13T11:49:03.039Z,5.70
2019-01-13T11:50:18.869Z,5.70
2019-01-13T11:51:23.367Z,5.70
2019-01-13T11:52:27.839Z,5.70
2019-01-13T11:53:32.313Z,5.70
2019-01-13T11:54:36.798Z,5.70
2019-01-13T11:55:41.305Z,5.70
2019-01-13T11:56:45.792Z,5.70
2019-01-13T11:57:50.619Z,5.70
2019-01-13T11:58:55.317Z,5.70
2019-01-13T11:59:59.807Z,5.70
2019-01-13T12:01:04.822Z,5.70
2019-01-13T12:02:09.304Z,5.70
2019-01-13T12:03:16.982Z,5.60
2019-01-13T12:04:20.400Z,5.60
2019-01-13T12:05:24.887Z,5.60
2019-01-13T12:06:29.396Z,5.60
2019-01-13T12:07:33.870Z,5.60
2019-01-13T12:08:38.575Z,5.60
2019-01-13T12:09:43.264Z,5.60
2019-01-13T12:10:47.794Z,5.60
2019-01-13T12:11:52.435Z,5.50
2019-01-13T12:12:57.062Z,5.50
2019-01-13T12:14:01.663Z,5.50
2019-01-13T12:15:11.378Z,5.50
2019-01-13T12:16:15.924Z,5.50
2019-01-13T12:17:20.423Z,5.50
2019-01-13T12:18:24.881Z,5.50
2019-01-13T12:19:29.377Z,5.40
2019-01-13T12:20:34.209Z,5.40
2019-01-13T12:21:38.667Z,5.40
2019-01-13T12:22:43.222Z,5.40
2019-01-13T12:23:47.699Z,5.40
2019-01-13T12:24:52.202Z,5.40
2019-01-13T12:25:56.688Z,5.40
2019-01-13T12:27:01.184Z,5.30
2019-01-13T12:28:05.713Z,5.40
2019-01-13T12:29:10.204Z,5.40
2019-01-13T12:30:17.834Z,5.40
2019-01-13T12:31:22.303Z,5.30
2019-01-13T12:32:26.811Z,5.30
2019-01-13T12:33:31.263Z,5.30
2019-01-13T12:34:35.748Z,5.30
2019-01-13T12:35:40.221Z,5.30
2019-01-13T12:36:44.723Z,5.30
2019-01-13T12:37:49.177Z,5.30
2019-01-13T12:38:53.667Z,5.30
2019-01-13T12:39:58.212Z,5.30
2019-01-13T12:41:02.716Z,5.30
2019-01-13T12:42:07.481Z,5.30
2019-01-13T12:43:12.133Z,5.30
2019-01-13T12:44:16.609Z,5.30
2019-01-13T12:45:23.320Z,5.30
2019-01-13T12:46:27.931Z,5.30
2019-01-13T12:47:32.502Z,5.30
2019-01-13T12:48:37.089Z,5.30
2019-01-13T12:49:41.697Z,5.30
2019-01-13T12:50:46.227Z,5.20
2019-01-13T12:51:50.738Z,5.20
2019-01-13T12:52:55.319Z,5.20
2019-01-13T12:53:59.797Z,5.20
2019-01-13T12:55:05.520Z,5.20
2019-01-13T12:56:10.011Z,5.20
2019-01-13T12:57:14.493Z,5.20
2019-01-13T12:58:18.998Z,5.20
2019-01-13T12:59:23.550Z,5.30
2019-01-13T13:00:28.103Z,5.30
2019-01-13T13:01:32.601Z,5.30
2019-01-13T13:02:37.101Z,5.30
2019-01-13T13:03:41.580Z,5.30
2019-01-13T13:04:46.070Z,5.30
2019-01-13T13:05:50.772Z,5.50
2019-01-13T13:06:55.307Z,5.30
2019-01-13T13:07:59.853Z,5.30
2019-01-13T13:09:08.339Z,5.30
2019-01-13T13:10:30.762Z,5.30
2019-01-13T13:11:35.327Z,5.30
2019-01-13T13:12:39.811Z,5.30
2019-01-13T13:13:44.372Z,5.30
2019-01-13T13:14:49.065Z,5.30
2019-01-13T13:15:53.626Z,5.30
2019-01-13T13:16:58.171Z,5.30
2019-01-13T13:18:02.749Z,5.30
2019-01-13T13:19:07.243Z,5.30
2019-01-13T13:20:14.647Z,5.30
2019-01-13T13:21:19.208Z,5.30
2019-01-13T13:22:23.711Z,5.30
2019-01-13T13:23:28.215Z,5.30
2019-01-13T13:24:32.871Z,5.30
2019-01-13T13:25:37.506Z,5.30
2019-01-13T13:26:42.013Z,5.30
2019-01-13T13:27:46.847Z,5.30
2019-01-13T13:28:51.921Z,5.30
2019-01-13T13:29:56.471Z,5.30
2019-01-13T13:31:00.983Z,5.30
2019-01-13T13:32:05.515Z,5.30
2019-01-13T13:33:10.089Z,5.30
2019-01-13T13:34:14.598Z,5.30
2019-01-13T13:35:19.819Z,5.30
2019-01-13T13:36:24.418Z,5.30
2019-01-13T13:37:29.075Z,5.30
2019-01-13T13:38:33.578Z,5.30
2019-01-13T13:39:38.065Z,5.30
2019-01-13T13:40:42.713Z,5.30
2019-01-13T13:41:47.220Z,5.30
2019-01-13T13:42:51.808Z,5.30
2019-01-13T13:43:56.444Z,5.30
2019-01-13T13:45:00.920Z,5.30
2019-01-13T13:46:05.583Z,5.30
2019-01-13T13:47:10.182Z,5.30
2019-01-13T13:48:14.666Z,5.30
2019-01-13T13:49:19.430Z,5.30
2019-01-13T13:50:26.006Z,5.30
2019-01-13T13:51:30.739Z,5.30
2019-01-13T13:52:35.309Z,5.30
2019-01-13T13:53:39.849Z,5.30
2019-01-13T13:54:44.331Z,5.30
2019-01-13T13:55:48.911Z,5.30
2019-01-13T13:56:53.379Z,5.30
2019-01-13T13:57:57.901Z,5.30
2019-01-13T13:59:02.409Z,5.40
2019-01-13T14:00:18.526Z,5.40
2019-01-13T14:01:23.032Z,5.30
2019-01-13T14:02:27.583Z,5.30
2019-01-13T14:03:32.153Z,5.30
2019-01-13T14:04:36.688Z,5.30
2019-01-13T14:05:41.195Z,5.30
2019-01-13T14:06:45.715Z,5.40
2019-01-13T14:07:50.310Z,5.40
2019-01-13T14:08:54.801Z,5.40
2019-01-13T14:09:59.337Z,5.40
2019-01-13T14:11:04.081Z,5.40
2019-01-13T14:12:08.672Z,5.40
2019-01-13T14:13:13.355Z,5.40
2019-01-13T14:14:17.898Z,5.40
2019-01-13T14:15:22.448Z,5.40
2019-01-13T14:16:26.910Z,5.40
2019-01-13T14:17:31.461Z,5.40
2019-01-13T14:18:35.947Z,5.40
2019-01-13T14:19:40.550Z,5.40
2019-01-13T14:20:45.164Z,5.50
2019-01-13T14:21:49.716Z,5.50
2019-01-13T14:22:54.253Z,5.50